createdAt,value
2022-12-25T00:00:20.911Z,7.70
2022-12-25T00:02:49.393Z,7.70
2022-12-25T00:05:19.513Z,7.70
2022-12-25T00:07:51.095Z,7.70
2022-12-25T00:10:19.432Z,7.70
2022-12-25T00:12:47.354Z,7.80
2022-12-25T00:15:15.360Z,7.80
2022-12-25T00:17:43.287Z,7.80
2022-12-25T00:20:11.744Z,7.80
2022-12-25T00:22:39.712Z,7.80
2022-12-25T00:25:07.949Z,7.80
2022-12-25T00:27:38.695Z,7.80
2022-12-25T00:30:08.939Z,7.80
2022-12-25T00:32:38.571Z,7.80
2022-12-25T00:35:07.175Z,7.80
2022-12-25T00:37:35.069Z,7.80
2022-12-25T00:40:02.937Z,7.90
2022-12-25T00:42:30.843Z,7.90
2022-12-25T00:44:58.755Z,7.90
2022-12-25T00:47:26.591Z,7.90
2022-12-25T00:49:54.580Z,7.90
2022-12-25T00:52:22.486Z,7.80
2022-12-25T00:54:50.468Z,7.90
2022-12-25T00:57:18.413Z,7.90
2022-12-25T00:59:46.334Z,8.00
2022-12-25T01:02:26.509Z,7.90
2022-12-25T01:04:57.160Z,8.00
2022-12-25T01:07:27.201Z,8.00
2022-12-25T01:10:13.953Z,7.90
2022-12-25T01:12:44.231Z,7.90
2022-12-25T01:15:15.655Z,7.90
2022-12-25T01:17:44.012Z,7.90
2022-12-25T01:20:14.214Z,8.00
2022-12-25T01:22:42.227Z,7.90
2022-12-25T01:25:11.783Z,8.00
2022-12-25T01:27:42.016Z,8.00
2022-12-25T01:30:10.519Z,8.00
2022-12-25T01:32:38.467Z,8.00
2022-12-25T01:35:06.820Z,8.10
2022-12-25T01:37:34.711Z,8.10
2022-12-25T01:40:02.646Z,8.00
2022-12-25T01:42:30.588Z,8.00
2022-12-25T01:45:28.914Z,8.10
2022-12-25T01:47:56.893Z,8.00
2022-12-25T01:50:25.107Z,8.00
2022-12-25T01:52:53.981Z,8.00
2022-12-25T01:55:23.075Z,8.00
2022-12-25T01:57:52.481Z,8.00
2022-12-25T02:00:20.608Z,8.00
2022-12-25T02:02:49.588Z,8.10
2022-12-25T02:05:29.128Z,8.00
2022-12-25T02:07:59.265Z,8.00
2022-12-25T02:10:27.246Z,8.00
2022-12-25T02:12:55.199Z,8.00
2022-12-25T02:15:26.603Z,8.00
2022-12-25T02:17:59.697Z,8.00
2022-12-25T02:20:59.097Z,8.00
2022-12-25T02:24:04.911Z,8.00
2022-12-25T02:26:56.153Z,8.00
2022-12-25T02:29:46.003Z,8.00
2022-12-25T02:32:25.737Z,7.90
2022-12-25T02:35:06.572Z,7.80
2022-12-25T02:37:41.424Z,7.80
2022-12-25T02:40:25.871Z,7.80
2022-12-25T02:43:39.075Z,7.70
2022-12-25T02:46:31.562Z,7.70
2022-12-25T02:49:28.178Z,7.70
2022-12-25T02:52:24.802Z,7.70
2022-12-25T02:55:16.277Z,7.70
2022-12-25T02:58:07.892Z,7.70
2022-12-25T03:00:56.734Z,7.60
2022-12-25T03:03:48.960Z,7.70
2022-12-25T03:06:42.803Z,7.60
2022-12-25T03:09:53.020Z,7.60
2022-12-25T03:12:54.398Z,7.60
2022-12-25T03:15:41.859Z,7.60
2022-12-25T03:18:14.906Z,7.50
2022-12-25T03:21:01.777Z,7.50
2022-12-25T03:23:52.403Z,7.40
2022-12-25T03:26:39.157Z,7.40
2022-12-25T03:29:07.380Z,7.40
2022-12-25T03:32:02.622Z,7.30
2022-12-25T03:35:16.369Z,7.30
2022-12-25T03:38:41.880Z,7.20
2022-12-25T03:41:39.620Z,7.20
2022-12-25T03:44:42.732Z,7.10
2022-12-25T03:47:36.275Z,7.00
2022-12-25T03:51:04.826Z,7.10
2022-12-25T03:54:05.499Z,7.00
2022-12-25T03:56:53.644Z,6.80
2022-12-25T03:59:42.913Z,6.80
2022-12-25T04:02:37.655Z,6.80
2022-12-25T04:05:28.866Z,6.80
2022-12-25T04:08:18.499Z,6.80
2022-12-25T04:11:04.975Z,6.80
2022-12-25T04:13:51.351Z,6.50
2022-12-25T04:16:38.183Z,6.40
2022-12-25T04:19:24.592Z,6.30
2022-12-25T04:22:11.199Z,6.20
2022-12-25T04:24:57.630Z,6.20
2022-12-25T04:27:45.226Z,6.20
2022-12-25T04:30:31.716Z,6.10
2022-12-25T04:33:18.781Z,6.10
2022-12-25T04:36:09.268Z,6.10
2022-12-25T04:38:38.620Z,5.90
2022-12-25T04:41:07.123Z,5.70
2022-12-25T04:43:35.238Z,5.70
2022-12-25T04:46:04.806Z,5.60
2022-12-25T04:48:36.096Z,5.50
2022-12-25T04:51:14.442Z,5.60
2022-12-25T04:53:42.799Z,5.60
2022-12-25T04:56:10.772Z,5.60
2022-12-25T04:58:38.997Z,5.50
2022-12-25T05:01:07.364Z,5.60
2022-12-25T05:03:36.095Z,5.60
2022-12-25T05:06:05.010Z,5.40
2022-12-25T05:08:34.161Z,5.40
2022-12-25T05:11:07.085Z,5.30
2022-12-25T05:13:35.409Z,5.10
2022-12-25T05:16:09.946Z,5.00
2022-12-25T05:18:37.977Z,4.90
2022-12-25T05:21:06.088Z,4.90
2022-12-25T05:23:34.113Z,5.00
2022-12-25T05:26:08.163Z,5.00
2022-12-25T05:28:36.898Z,5.10
2022-12-25T05:31:07.130Z,5.10
2022-12-25T05:33:35.418Z,5.10
2022-12-25T05:36:06.333Z,5.30
2022-12-25T05:38:37.556Z,5.30
2022-12-25T05:41:05.867Z,5.40
2022-12-25T05:43:34.065Z,5.30
2022-12-25T05:46:10.135Z,5.20
2022-12-25T05:48:39.025Z,5.10
2022-12-25T05:51:12.672Z,5.00
2022-12-25T05:53:42.197Z,5.00
2022-12-25T05:56:11.124Z,5.00
2022-12-25T05:58:40.963Z,5.00
2022-12-25T06:01:21.121Z,5.00
2022-12-25T06:03:49.199Z,5.00
2022-12-25T06:06:17.124Z,5.00
2022-12-25T06:08:45.328Z,5.00
2022-12-25T06:11:15.298Z,5.00
2022-12-25T06:13:44.003Z,5.10
2022-12-25T06:16:13.227Z,5.10
2022-12-25T06:18:44.442Z,5.10
2022-12-25T06:21:14.771Z,5.00
2022-12-25T06:23:43.222Z,5.10
2022-12-25T06:26:14.166Z,5.10
2022-12-25T06:28:45.441Z,5.10
2022-12-25T06:31:18.994Z,5.10
2022-12-25T06:33:47.718Z,5.20
2022-12-25T06:36:21.864Z,5.30
2022-12-25T06:38:49.946Z,5.30
2022-12-25T06:41:21.021Z,5.30
2022-12-25T06:43:50.911Z,5.40
2022-12-25T06:46:19.728Z,5.50
2022-12-25T06:48:50.492Z,5.50
2022-12-25T06:51:20.610Z,5.40
2022-12-25T06:53:50.268Z,5.40
2022-12-25T06:56:21.177Z,5.30
2022-12-25T06:58:57.552Z,5.40
2022-12-25T07:01:29.730Z,5.40
2022-12-25T07:04:00.516Z,5.50
2022-12-25T07:06:28.646Z,5.60
2022-12-25T07:08:56.632Z,5.60
2022-12-25T07:11:25.386Z,5.60
2022-12-25T07:13:53.378Z,5.60
2022-12-25T07:16:21.469Z,5.70
2022-12-25T07:18:49.448Z,5.80
2022-12-25T07:21:22.298Z,5.80
2022-12-25T07:23:54.472Z,5.90
2022-12-25T07:26:22.418Z,5.90
2022-12-25T07:28:53.354Z,5.80
2022-12-25T07:31:21.684Z,5.80
2022-12-25T07:33:49.614Z,5.90
2022-12-25T07:36:17.636Z,5.90
2022-12-25T07:38:49.038Z,6.00
2022-12-25T07:41:16.825Z,6.10
2022-12-25T07:43:44.906Z,6.10
2022-12-25T07:46:12.846Z,6.00
2022-12-25T07:48:40.750Z,6.00
2022-12-25T07:51:13.397Z,6.10
2022-12-25T07:53:41.709Z,6.10
2022-12-25T07:56:16.539Z,6.20
2022-12-25T07:58:45.331Z,6.30
2022-12-25T08:01:25.373Z,6.30
2022-12-25T08:04:02.075Z,6.30
2022-12-25T08:06:35.586Z,6.30
2022-12-25T08:09:14.467Z,6.30
2022-12-25T08:11:48.005Z,6.30
2022-12-25T08:14:16.485Z,6.40
2022-12-25T08:16:44.621Z,6.50
2022-12-25T08:19:12.716Z,6.60
2022-12-25T08:21:40.644Z,6.70
2022-12-25T08:24:08.748Z,6.80
2022-12-25T08:26:36.635Z,6.90
2022-12-25T08:29:04.695Z,7.00
2022-12-25T08:31:34.511Z,7.10
2022-12-25T08:34:04.508Z,7.20
2022-12-25T08:36:32.451Z,7.20
2022-12-25T08:39:03.371Z,7.30
2022-12-25T08:41:32.305Z,7.30
2022-12-25T08:44:00.771Z,7.40
2022-12-25T08:46:28.925Z,7.50
2022-12-25T08:48:57.945Z,7.50
2022-12-25T08:51:27.354Z,7.60
2022-12-25T08:54:01.012Z,7.60
2022-12-25T08:56:29.143Z,7.60
2022-12-25T08:58:57.063Z,7.70
2022-12-25T09:01:25.070Z,7.80
2022-12-25T09:03:53.142Z,7.90
2022-12-25T09:06:21.242Z,7.90
2022-12-25T09:08:50.077Z,8.00
2022-12-25T09:11:20.055Z,8.10
2022-12-25T09:13:48.855Z,8.10
2022-12-25T09:16:21.431Z,8.20
2022-12-25T09:18:50.229Z,8.10
2022-12-25T09:21:20.634Z,8.10
2022-12-25T09:23:48.948Z,8.20
2022-12-25T09:26:21.119Z,8.40
2022-12-25T09:28:52.384Z,8.60
2022-12-25T09:31:22.375Z,8.70
2022-12-25T09:33:52.170Z,8.70
2022-12-25T09:36:22.378Z,8.70
2022-12-25T09:38:50.527Z,8.60
2022-12-25T09:41:35.630Z,8.60
2022-12-25T09:44:06.804Z,8.60
2022-12-25T09:47:03.948Z,8.70
2022-12-25T09:49:47.882Z,8.80
2022-12-25T09:52:21.106Z,8.90
2022-12-25T09:55:11.530Z,8.90
2022-12-25T09:57:42.773Z,9.00
2022-12-25T10:00:22.233Z,9.10
2022-12-25T10:03:14.485Z,9.20
2022-12-25T10:06:05.557Z,9.30
2022-12-25T10:08:51.508Z,9.40
2022-12-25T10:11:46.783Z,9.50
2022-12-25T10:14:45.994Z,9.60
2022-12-25T10:17:44.303Z,9.80
2022-12-25T10:20:15.327Z,9.90
2022-12-25T10:22:51.267Z,10.10
2022-12-25T10:25:22.467Z,10.00
2022-12-25T10:32:11.722Z,10.10
2022-12-25T10:34:42.764Z,10.10
2022-12-25T10:37:13.113Z,10.10
2022-12-25T10:39:46.356Z,10.10
2022-12-25T10:42:37.015Z,10.20
2022-12-25T10:45:10.442Z,10.30
2022-12-25T10:47:42.170Z,10.40
2022-12-25T10:50:19.764Z,10.50
2022-12-25T10:53:14.453Z,10.50
2022-12-25T10:55:42.365Z,10.60
2022-12-25T10:58:22.726Z,10.70
2022-12-25T11:00:56.309Z,10.70
2022-12-25T11:03:26.914Z,10.60
2022-12-25T11:05:55.734Z,10.60
2022-12-25T11:08:25.955Z,10.60
2022-12-25T11:10:57.586Z,10.50
2022-12-25T11:13:28.987Z,10.60
2022-12-25T11:16:26.269Z,10.50
2022-12-25T11:18:55.841Z,10.50
2022-12-25T11:21:26.961Z,10.60
2022-12-25T11:24:07.051Z,10.60
2022-12-25T11:26:52.822Z,10.70
2022-12-25T11:29:39.311Z,10.70
2022-12-25T11:32:26.271Z,10.80
2022-12-25T11:34:55.102Z,10.80
2022-12-25T11:37:35.047Z,10.90
2022-12-25T11:40:03.699Z,10.90
2022-12-25T11:42:48.511Z,10.90
2022-12-25T11:45:31.194Z,11.00
2022-12-25T11:48:20.360Z,11.10
2022-12-25T11:50:55.092Z,11.10
2022-12-25T11:53:32.964Z,11.10
2022-12-25T11:56:06.676Z,11.20
2022-12-25T11:58:40.610Z,11.20
2022-12-25T12:01:34.483Z,11.20
2022-12-25T12:04:04.243Z,11.20
2022-12-25T12:06:57.116Z,11.20
2022-12-25T12:09:47.011Z,11.20
2022-12-25T12:12:48.511Z,11.10
2022-12-25T12:15:36.739Z,11.10
2022-12-25T12:18:29.345Z,11.00
2022-12-25T12:21:04.785Z,11.00
2022-12-25T12:23:50.112Z,10.90
2022-12-25T12:26:27.900Z,11.00
2022-12-25T12:29:01.653Z,11.00
2022-12-25T12:31:45.586Z,11.00
2022-12-25T12:34:34.139Z,11.10
2022-12-25T12:37:24.783Z,11.20
2022-12-25T12:39:59.641Z,11.20
2022-12-25T12:42:37.100Z,11.30
2022-12-25T12:45:32.721Z,11.30
2022-12-25T12:48:00.756Z,11.40
2022-12-25T12:50:33.912Z,11.40
2022-12-25T12:53:21.788Z,11.40
2022-12-25T12:55:54.198Z,11.40
2022-12-25T12:58:51.780Z,11.50
2022-12-25T13:01:28.819Z,11.50
2022-12-25T13:04:02.877Z,11.50
2022-12-25T13:06:51.501Z,11.60
2022-12-25T13:09:41.696Z,11.60
2022-12-25T13:12:10.078Z,11.60
2022-12-25T13:14:39.013Z,11.50
2022-12-25T13:17:09.929Z,11.50
2022-12-25T13:19:38.781Z,11.60
2022-12-25T13:22:08.271Z,11.50
2022-12-25T13:24:38.065Z,11.50
2022-12-25T13:27:27.272Z,11.50
2022-12-25T13:29:55.275Z,11.50
2022-12-25T13:35:16.765Z,11.50
2022-12-25T13:37:45.919Z,11.60
2022-12-25T13:40:32.055Z,11.60
2022-12-25T13:43:02.063Z,11.50
2022-12-25T13:45:31.725Z,11.50
2022-12-25T13:48:10.187Z,11.50
2022-12-25T13:50:38.431Z,11.50
2022-12-25T13:53:15.234Z,11.50
2022-12-25T13:55:45.221Z,11.60
2022-12-25T13:58:31.784Z,11.60
2022-12-25T14:01:02.253Z,11.50
2022-12-25T14:03:38.024Z,11.60
2022-12-25T14:06:17.245Z,11.60
2022-12-25T14:08:45.835Z,11.60
2022-12-25T14:11:17.478Z,11.50
2022-12-25T14:13:48.027Z,11.50
2022-12-25T14:16:20.434Z,11.50
2022-12-25T14:19:03.664Z,11.40
2022-12-25T14:21:41.990Z,11.40
2022-12-25T14:24:15.200Z,11.40
2022-12-25T14:26:44.113Z,11.30
2022-12-25T14:29:18.562Z,11.30
2022-12-25T14:31:48.878Z,11.30
2022-12-25T14:34:25.390Z,11.20
2022-12-25T14:36:54.426Z,11.20
2022-12-25T14:39:38.461Z,11.10
2022-12-25T14:42:33.446Z,11.10
2022-12-25T14:45:07.971Z,11.10
2022-12-25T14:47:52.019Z,11.10
2022-12-25T14:50:31.711Z,11.00
2022-12-25T14:53:00.964Z,11.00
2022-12-25T14:55:31.309Z,10.90
2022-12-25T14:58:08.819Z,10.90
2022-12-25T15:00:39.857Z,10.90
2022-12-25T15:03:28.583Z,10.90
2022-12-25T15:06:21.141Z,10.80
2022-12-25T15:09:03.822Z,10.80
2022-12-25T15:11:31.825Z,10.80
2022-12-25T15:14:00.449Z,10.70
2022-12-25T15:16:35.555Z,10.70
2022-12-25T15:19:03.702Z,10.70
2022-12-25T15:21:35.190Z,10.70
2022-12-25T15:24:06.480Z,10.70
2022-12-25T15:26:37.688Z,10.60
2022-12-25T15:29:07.285Z,10.60
2022-12-25T15:31:37.566Z,10.60
2022-12-25T15:34:22.434Z,10.60
2022-12-25T15:36:50.674Z,10.60
2022-12-25T15:39:18.534Z,10.60
2022-12-25T15:42:05.084Z,10.60
2022-12-25T15:44:33.043Z,10.50
2022-12-25T15:47:00.956Z,10.50
2022-12-25T15:49:28.927Z,10.50
2022-12-25T15:51:56.857Z,10.50
2022-12-25T15:54:24.762Z,10.50
2022-12-25T15:56:56.812Z,10.50
2022-12-25T15:59:24.931Z,10.50
2022-12-25T16:01:55.562Z,10.40
2022-12-25T16:04:25.018Z,10.40
2022-12-25T16:06:59.471Z,10.40
2022-12-25T16:09:28.671Z,10.40
2022-12-25T16:11:56.583Z,10.40
2022-12-25T16:14:24.487Z,10.40
2022-12-25T16:16:52.394Z,10.30
2022-12-25T16:19:20.317Z,10.30
2022-12-25T16:21:48.311Z,10.30
2022-12-25T16:24:16.925Z,10.20
2022-12-25T16:26:44.851Z,10.20
2022-12-25T16:29:12.732Z,10.10
2022-12-25T16:31:41.158Z,10.10
2022-12-25T16:34:10.564Z,10.00
2022-12-25T16:36:38.548Z,10.00
2022-12-25T16:39:06.646Z,10.00
2022-12-25T16:41:34.634Z,9.90
2022-12-25T16:44:11.117Z,9.90
2022-12-25T16:46:41.084Z,9.90
2022-12-25T16:49:09.745Z,9.80
2022-12-25T16:51:37.623Z,9.80
2022-12-25T16:54:05.674Z,9.80
2022-12-25T16:56:33.697Z,9.80
2022-12-25T16:59:02.087Z,9.80
2022-12-25T17:01:30.264Z,9.80
2022-12-25T17:04:02.546Z,9.80
2022-12-25T17:06:30.737Z,9.80
2022-12-25T17:09:00.611Z,9.80
2022-12-25T17:11:30.868Z,9.80
2022-12-25T17:14:00.939Z,9.80
2022-12-25T17:16:31.318Z,9.80
2022-12-25T17:19:11.968Z,9.80
2022-12-25T17:21:39.972Z,9.80
2022-12-25T17:24:11.142Z,9.80
2022-12-25T17:26:42.685Z,9.80
2022-12-25T17:29:14.690Z,9.80
2022-12-25T17:31:46.693Z,9.80
2022-12-25T17:34:16.002Z,9.80
2022-12-25T17:36:43.947Z,9.80
2022-12-25T17:39:12.153Z,9.80
2022-12-25T17:41:40.268Z,9.80
2022-12-25T17:44:08.211Z,9.80
2022-12-25T17:46:36.252Z,9.80
2022-12-25T17:49:04.339Z,9.80
2022-12-25T17:51:32.841Z,9.70
2022-12-25T17:54:04.145Z,9.70
2022-12-25T17:56:32.812Z,9.70
2022-12-25T17:59:04.589Z,9.70
2022-12-25T18:01:32.620Z,9.60
2022-12-25T18:04:01.711Z,9.60
2022-12-25T18:06:30.670Z,9.60
2022-12-25T18:08:59.424Z,9.60
2022-12-25T18:11:30.335Z,9.50
2022-12-25T18:13:59.329Z,9.50
2022-12-25T18:16:27.536Z,9.40
2022-12-25T18:18:55.501Z,9.40
2022-12-25T18:21:24.349Z,9.40
2022-12-25T18:23:53.037Z,9.40
2022-12-25T18:26:21.702Z,9.40
2022-12-25T18:28:50.793Z,9.50
2022-12-25T18:31:22.115Z,9.50
2022-12-25T18:33:53.107Z,9.50
2022-12-25T18:36:26.061Z,9.50
2022-12-25T18:38:55.723Z,9.50
2022-12-25T18:41:23.943Z,9.50
2022-12-25T18:43:55.556Z,9.40
2022-12-25T18:46:28.144Z,9.40
2022-12-25T18:48:57.837Z,9.40
2022-12-25T18:51:31.309Z,9.40
2022-12-25T18:54:04.620Z,9.40
2022-12-25T18:56:32.615Z,9.40
2022-12-25T18:59:01.802Z,9.40
2022-12-25T19:01:30.055Z,9.30
2022-12-25T19:04:04.381Z,9.30
2022-12-25T19:06:34.299Z,9.30
2022-12-25T19:09:09.649Z,9.30
2022-12-25T19:11:46.193Z,9.30
2022-12-25T19:14:15.546Z,9.20
2022-12-25T19:16:43.584Z,9.20
2022-12-25T19:19:11.643Z,9.20
2022-12-25T19:21:39.609Z,9.20
2022-12-25T19:24:10.533Z,9.20
2022-12-25T19:26:38.780Z,9.10
2022-12-25T19:29:09.490Z,9.10
2022-12-25T19:31:39.856Z,9.10
2022-12-25T19:34:08.108Z,9.10
2022-12-25T19:36:36.075Z,9.10
2022-12-25T19:39:04.794Z,9.10
2022-12-25T19:41:33.490Z,9.00
2022-12-25T19:44:01.773Z,9.00
2022-12-25T19:46:33.788Z,9.00
2022-12-25T19:49:05.259Z,8.80
2022-12-25T19:51:34.813Z,8.80
2022-12-25T19:54:03.826Z,8.80
2022-12-25T19:56:32.410Z,8.80
2022-12-25T19:59:01.097Z,8.70
2022-12-25T20:01:30.432Z,8.60
2022-12-25T20:03:58.825Z,8.50
2022-12-25T20:06:30.145Z,8.50
2022-12-25T20:09:01.436Z,8.50
2022-12-25T20:11:31.292Z,8.40
2022-12-25T20:13:59.921Z,8.30
2022-12-25T20:16:28.197Z,8.20
2022-12-25T20:18:57.581Z,8.20
2022-12-25T20:21:27.838Z,8.20
2022-12-25T20:23:56.117Z,8.10
2022-12-25T20:26:28.781Z,8.00
2022-12-25T20:28:56.789Z,7.90
2022-12-25T20:31:35.763Z,7.70
2022-12-25T20:34:12.415Z,7.70
2022-12-25T20:36:40.734Z,7.60
2022-12-25T20:39:11.720Z,7.50
2022-12-25T20:41:40.948Z,7.40
2022-12-25T20:44:11.051Z,7.40
2022-12-25T20:46:39.154Z,7.30
2022-12-25T20:49:07.020Z,7.20
2022-12-25T20:51:35.563Z,7.20
2022-12-25T20:54:10.693Z,7.20
2022-12-25T20:56:38.939Z,7.10
2022-12-25T20:59:06.880Z,7.10
2022-12-25T21:01:34.903Z,7.20
2022-12-25T21:04:03.032Z,7.20
2022-12-25T21:06:31.020Z,7.20
2022-12-25T21:08:59.068Z,7.20
2022-12-25T21:11:27.647Z,7.20
2022-12-25T21:13:55.581Z,7.10
2022-12-25T21:16:24.078Z,7.20
2022-12-25T21:18:54.275Z,7.00
2022-12-25T21:21:22.881Z,7.00
2022-12-25T21:23:51.308Z,7.00
2022-12-25T21:26:28.182Z,7.00
2022-12-25T21:28:58.480Z,7.00
2022-12-25T21:31:27.193Z,7.00
2022-12-25T21:33:56.362Z,7.00
2022-12-25T21:36:33.012Z,7.00
2022-12-25T21:39:11.181Z,7.00
2022-12-25T21:41:40.239Z,7.00
2022-12-25T21:44:08.940Z,7.00
2022-12-25T21:46:36.928Z,7.00
2022-12-25T21:49:04.996Z,6.90
2022-12-25T21:51:53.571Z,6.90
2022-12-25T21:54:23.237Z,6.80
2022-12-25T21:56:51.745Z,6.80
2022-12-25T21:59:22.559Z,6.70
2022-12-25T22:01:52.209Z,6.70
2022-12-25T22:04:22.694Z,6.60
2022-12-25T22:07:09.626Z,6.60
2022-12-25T22:09:41.248Z,6.50
2022-12-25T22:12:33.797Z,6.40
2022-12-25T22:15:07.469Z,6.40
2022-12-25T22:17:59.061Z,6.40
2022-12-25T22:20:31.788Z,6.40
2022-12-25T22:23:02.068Z,6.40
2022-12-25T22:25:30.076Z,6.40
2022-12-25T22:28:01.872Z,6.50
2022-12-25T22:30:33.226Z,6.40
2022-12-25T22:33:03.900Z,6.50
2022-12-25T22:35:31.792Z,6.40
2022-12-25T22:37:59.893Z,6.50
2022-12-25T22:40:27.944Z,6.50
2022-12-25T22:42:57.276Z,6.50
2022-12-25T22:45:25.690Z,6.40
2022-12-25T22:47:53.643Z,6.50
2022-12-25T22:50:21.844Z,6.50
2022-12-25T22:52:49.798Z,6.50
2022-12-25T22:55:20.232Z,6.50
2022-12-25T22:57:48.443Z,6.50
2022-12-25T23:00:16.488Z,6.50
2022-12-25T23:02:44.610Z,6.50
2022-12-25T23:05:12.623Z,6.60
2022-12-25T23:07:41.428Z,6.50
2022-12-25T23:10:10.420Z,6.50
2022-12-25T23:12:56.841Z,6.50
2022-12-25T23:15:24.822Z,6.50
2022-12-25T23:18:16.194Z,6.50
2022-12-25T23:21:03.001Z,6.50
2022-12-25T23:23:49.348Z,6.50
2022-12-25T23:26:18.974Z,6.60
2022-12-25T23:29:05.485Z,6.60
2022-12-25T23:31:40.836Z,6.60
2022-12-25T23:34:12.074Z,6.60
2022-12-25T23:36:39.993Z,6.60
2022-12-25T23:39:10.406Z,6.50
2022-12-25T23:41:39.952Z,6.50
2022-12-25T23:44:09.202Z,6.50
2022-12-25T23:46:37.296Z,6.60
2022-12-25T23:49:06.036Z,6.50
2022-12-25T23:51:35.685Z,6.40
2022-12-25T23:54:04.815Z,6.40
2022-12-25T23:56:34.235Z,6.50
2022-12-25T23:59:03.951Z,6.60
